sensor_id;sensor_type;location;lat;lon;timestamp;temperature;humidity
17341;DHT22;8788;49.930;8.660;2023-04-16T00:00:24;10.50;99.90
17341;DHT22;8788;49.930;8.660;2023-04-16T00:02:51;10.50;99.90
17341;DHT22;8788;49.930;8.660;2023-04-16T00:05:18;10.50;99.90
17341;DHT22;8788;49.930;8.660;2023-04-16T00:07:45;10.50;99.90
17341;DHT22;8788;49.930;8.660;2023-04-16T00:10:14;10.50;99.90
17341;DHT22;8788;49.930;8.660;2023-04-16T00:12:41;10.50;99.90
17341;DHT22;8788;49.930;8.660;2023-04-16T00:15:08;10.50;99.90
17341;DHT22;8788;49.930;8.660;2023-04-16T00:17:35;10.50;99.90
17341;DHT22;8788;49.930;8.660;2023-04-16T00:20:03;10.50;99.90
17341;DHT22;8788;49.930;8.660;2023-04-16T00:22:30;10.50;99.90
17341;DHT22;8788;49.930;8.660;2023-04-16T00:24:57;10.60;99.90
17341;DHT22;8788;49.930;8.660;2023-04-16T00:27:26;10.60;99.90
17341;DHT22;8788;49.930;8.660;2023-04-16T00:29:53;10.60;99.90
17341;DHT22;8788;49.930;8.660;2023-04-16T00:32:20;10.50;99.90
17341;DHT22;8788;49.930;8.660;2023-04-16T00:34:47;10.60;99.90
17341;DHT22;8788;49.930;8.660;2023-04-16T00:37:14;10.60;99.90
17341;DHT22;8788;49.930;8.660;2023-04-16T00:39:41;10.60;99.90
17341;DHT22;8788;49.930;8.660;2023-04-16T00:42:08;10.60;99.90
17341;DHT22;8788;49.930;8.660;2023-04-16T00:44:37;10.60;99.90
17341;DHT22;8788;49.930;8.660;2023-04-16T00:47:05;10.60;99.90
17341;DHT22;8788;49.930;8.660;2023-04-16T00:49:33;10.70;99.90
17341;DHT22;8788;49.930;8.660;2023-04-16T00:52:00;10.70;99.90
17341;DHT22;8788;49.930;8.660;2023-04-16T00:54:29;10.70;99.90
17341;DHT22;8788;49.930;8.660;2023-04-16T00:56:57;10.60;99.90
17341;DHT22;8788;49.930;8.660;2023-04-16T00:59:26;10.60;99.90
17341;DHT22;8788;49.930;8.660;2023-04-16T01:01:54;10.60;99.90
17341;DHT22;8788;49.930;8.660;2023-04-16T01:04:21;10.60;99.90
17341;DHT22;8788;49.930;8.660;2023-04-16T01:06:49;10.60;99.90
17341;DHT22;8788;49.930;8.660;2023-04-16T01:09:16;10.60;99.90
17341;DHT22;8788;49.930;8.660;2023-04-16T01:11:43;10.60;99.90
17341;DHT22;8788;49.930;8.660;2023-04-16T01:14:11;10.60;99.90
17341;DHT22;8788;49.930;8.660;2023-04-16T01:16:38;10.50;99.90
17341;DHT22;8788;49.930;8.660;2023-04-16T01:19:07;10.60;99.90
17341;DHT22;8788;49.930;8.660;2023-04-16T01:21:35;10.60;99.90
17341;DHT22;8788;49.930;8.660;2023-04-16T01:24:03;10.60;99.90
17341;DHT22;8788;49.930;8.660;2023-04-16T01:26:30;10.60;99.90
17341;DHT22;8788;49.930;8.660;2023-04-16T01:28:57;10.60;99.90
17341;DHT22;8788;49.930;8.660;2023-04-16T01:31:26;10.60;99.90
17341;DHT22;8788;49.930;8.660;2023-04-16T01:34:13;10.60;99.90
17341;DHT22;8788;49.930;8.660;2023-04-16T01:36:42;10.60;99.90
17341;DHT22;8788;49.930;8.660;2023-04-16T01:39:09;10.60;99.90
17341;DHT22;8788;49.930;8.660;2023-04-16T01:41:40;10.60;99.90
17341;DHT22;8788;49.930;8.660;2023-04-16T01:44:07;10.70;99.90
17341;DHT22;8788;49.930;8.660;2023-04-16T01:46:35;10.70;99.90
17341;DHT22;8788;49.930;8.660;2023-04-16T01:49:03;10.70;99.90
17341;DHT22;8788;49.930;8.660;2023-04-16T01:51:32;10.70;99.90
17341;DHT22;8788;49.930;8.660;2023-04-16T01:54:00;10.70;99.90
17341;DHT22;8788;49.930;8.660;2023-04-16T01:56:27;10.70;99.90
17341;DHT22;8788;49.930;8.660;2023-04-16T01:58:54;10.70;99.90
17341;DHT22;8788;49.930;8.660;2023-04-16T02:01:23;10.70;99.90
17341;DHT22;8788;49.930;8.660;2023-04-16T02:03:50;10.70;99.90
17341;DHT22;8788;49.930;8.660;2023-04-16T02:06:19;10.60;99.90
17341;DHT22;8788;49.930;8.660;2023-04-16T02:08:46;10.70;99.90
17341;DHT22;8788;49.930;8.660;2023-04-16T02:11:15;10.70;99.90
17341;DHT22;8788;49.930;8.660;2023-04-16T02:13:42;10.60;99.90
17341;DHT22;8788;49.930;8.660;2023-04-16T02:16:09;10.60;99.90
17341;DHT22;8788;49.930;8.660;2023-04-16T02:18:45;10.60;99.90
17341;DHT22;8788;49.930;8.660;2023-04-16T02:21:13;10.60;99.90
17341;DHT22;8788;49.930;8.660;2023-04-16T02:23:41;10.60;99.90
17341;DHT22;8788;49.930;8.660;2023-04-16T02:26:12;10.60;99.90
17341;DHT22;8788;49.930;8.660;2023-04-16T02:28:40;10.60;99.90
17341;DHT22;8788;49.930;8.660;2023-04-16T02:31:10;10.60;99.90
17341;DHT22;8788;49.930;8.660;2023-04-16T02:33:42;10.60;99.90
17341;DHT22;8788;49.930;8.660;2023-04-16T02:36:09;10.60;99.90
17341;DHT22;8788;49.930;8.660;2023-04-16T02:38:37;10.60;99.90
17341;DHT22;8788;49.930;8.660;2023-04-16T02:41:05;10.60;99.90
17341;DHT22;8788;49.930;8.660;2023-04-16T02:43:33;10.60;99.90
17341;DHT22;8788;49.930;8.660;2023-04-16T02:46:02;10.70;99.90
17341;DHT22;8788;49.930;8.660;2023-04-16T02:48:29;10.70;99.90
17341;DHT22;8788;49.930;8.660;2023-04-16T02:50:56;10.70;99.90
17341;DHT22;8788;49.930;8.660;2023-04-16T02:53:24;10.70;99.90
17341;DHT22;8788;49.930;8.660;2023-04-16T02:55:51;10.70;99.90
17341;DHT22;8788;49.930;8.660;2023-04-16T02:58:19;10.70;99.90
17341;DHT22;8788;49.930;8.660;2023-04-16T03:00:46;10.70;99.90
17341;DHT22;8788;49.930;8.660;2023-04-16T03:03:15;10.70;99.90
17341;DHT22;8788;49.930;8.660;2023-04-16T03:05:42;10.70;99.90
17341;DHT22;8788;49.930;8.660;2023-04-16T03:08:10;10.60;99.90
17341;DHT22;8788;49.930;8.660;2023-04-16T03:10:37;10.60;99.90
17341;DHT22;8788;49.930;8.660;2023-04-16T03:13:04;10.60;99.90
17341;DHT22;8788;49.930;8.660;2023-04-16T03:15:32;10.60;99.90
17341;DHT22;8788;49.930;8.660;2023-04-16T03:17:59;10.60;99.90
17341;DHT22;8788;49.930;8.660;2023-04-16T03:20:28;10.60;99.90
17341;DHT22;8788;49.930;8.660;2023-04-16T03:22:55;10.60;99.90
17341;DHT22;8788;49.930;8.660;2023-04-16T03:25:23;10.60;99.90
17341;DHT22;8788;49.930;8.660;2023-04-16T03:27:50;10.60;99.90
17341;DHT22;8788;49.930;8.660;2023-04-16T03:30:17;10.60;99.90
17341;DHT22;8788;49.930;8.660;2023-04-16T03:32:44;10.60;99.90
17341;DHT22;8788;49.930;8.660;2023-04-16T03:35:12;10.60;99.90
17341;DHT22;8788;49.930;8.660;2023-04-16T03:37:45;10.50;99.90
17341;DHT22;8788;49.930;8.660;2023-04-16T03:40:13;10.60;99.90
17341;DHT22;8788;49.930;8.660;2023-04-16T03:42:41;10.60;99.90
17341;DHT22;8788;49.930;8.660;2023-04-16T03:45:08;10.50;99.90
17341;DHT22;8788;49.930;8.660;2023-04-16T03:47:37;10.50;99.90
17341;DHT22;8788;49.930;8.660;2023-04-16T03:50:05;10.50;99.90
17341;DHT22;8788;49.930;8.660;2023-04-16T03:52:32;10.40;99.90
17341;DHT22;8788;49.930;8.660;2023-04-16T03:55:00;10.40;99.90
17341;DHT22;8788;49.930;8.660;2023-04-16T03:57:30;10.40;99.90
17341;DHT22;8788;49.930;8.660;2023-04-16T04:00:06;10.40;99.90
17341;DHT22;8788;49.930;8.660;2023-04-16T04:03:02;10.40;99.90
17341;DHT22;8788;49.930;8.660;2023-04-16T04:05:30;10.40;99.90
17341;DHT22;8788;49.930;8.660;2023-04-16T04:08:02;10.40;99.90
17341;DHT22;8788;49.930;8.660;2023-04-16T04:10:32;10.30;99.90
17341;DHT22;8788;49.930;8.660;2023-04-16T04:13:01;10.30;99.90
17341;DHT22;8788;49.930;8.660;2023-04-16T04:15:29;10.30;99.90
17341;DHT22;8788;49.930;8.660;2023-04-16T04:17:56;10.30;99.90
17341;DHT22;8788;49.930;8.660;2023-04-16T04:20:24;10.30;99.90
17341;DHT22;8788;49.930;8.660;2023-04-16T04:22:52;10.30;99.90
17341;DHT22;8788;49.930;8.660;2023-04-16T04:25:22;10.30;99.90
17341;DHT22;8788;49.930;8.660;2023-04-16T04:27:51;10.30;99.90
17341;DHT22;8788;49.930;8.660;2023-04-16T04:30:18;10.30;99.90
17341;DHT22;8788;49.930;8.660;2023-04-16T04:32:45;10.30;99.90
17341;DHT22;8788;49.930;8.660;2023-04-16T04:35:12;10.30;99.90
17341;DHT22;8788;49.930;8.660;2023-04-16T04:37:40;10.30;99.90
17341;DHT22;8788;49.930;8.660;2023-04-16T04:40:17;10.30;99.90
17341;DHT22;8788;49.930;8.660;2023-04-16T04:42:45;10.30;99.90
17341;DHT22;8788;49.930;8.660;2023-04-16T04:45:13;10.30;99.90
17341;DHT22;8788;49.930;8.660;2023-04-16T04:47:41;10.30;99.90
17341;DHT22;8788;49.930;8.660;2023-04-16T04:50:08;10.30;99.90
17341;DHT22;8788;49.930;8.660;2023-04-16T04:52:36;10.30;99.90
17341;DHT22;8788;49.930;8.660;2023-04-16T04:55:04;10.30;99.90
17341;DHT22;8788;49.930;8.660;2023-04-16T04:57:31;10.40;99.90
17341;DHT22;8788;49.930;8.660;2023-04-16T04:59:58;10.40;99.90
17341;DHT22;8788;49.930;8.660;2023-04-16T05:02:32;10.40;99.90
17341;DHT22;8788;49.930;8.660;2023-04-16T05:05:00;10.40;99.90
17341;DHT22;8788;49.930;8.660;2023-04-16T05:07:27;10.40;99.90
17341;DHT22;8788;49.930;8.660;2023-04-16T05:09:54;10.40;99.90
17341;DHT22;8788;49.930;8.660;2023-04-16T05:12:21;10.40;99.90
17341;DHT22;8788;49.930;8.660;2023-04-16T05:14:48;10.50;99.90
17341;DHT22;8788;49.930;8.660;2023-04-16T05:17:15;10.50;99.90
17341;DHT22;8788;49.930;8.660;2023-04-16T05:19:44;10.50;99.90
17341;DHT22;8788;49.930;8.660;2023-04-16T05:22:11;10.50;99.90
17341;DHT22;8788;49.930;8.660;2023-04-16T05:24:38;10.50;99.90
17341;DHT22;8788;49.930;8.660;2023-04-16T05:27:05;10.50;99.90
17341;DHT22;8788;49.930;8.660;2023-04-16T05:29:32;10.60;99.90
17341;DHT22;8788;49.930;8.660;2023-04-16T05:32:00;10.60;99.90
17341;DHT22;8788;49.930;8.660;2023-04-16T05:34:27;10.60;99.90
17341;DHT22;8788;49.930;8.660;2023-04-16T05:36:55;10.60;99.90
17341;DHT22;8788;49.930;8.660;2023-04-16T05:39:22;10.60;99.90
17341;DHT22;8788;49.930;8.660;2023-04-16T05:41:49;10.50;99.90
17341;DHT22;8788;49.930;8.660;2023-04-16T05:44:16;10.50;99.90
17341;DHT22;8788;49.930;8.660;2023-04-16T05:46:43;10.50;99.90
17341;DHT22;8788;49.930;8.660;2023-04-16T05:49:10;10.50;99.90
17341;DHT22;8788;49.930;8.660;2023-04-16T05:51:37;10.60;99.90
17341;DHT22;8788;49.930;8.660;2023-04-16T05:54:06;10.60;99.90
17341;DHT22;8788;49.930;8.660;2023-04-16T05:56:33;10.60;99.90
17341;DHT22;8788;49.930;8.660;2023-04-16T05:59:00;10.60;99.90
17341;DHT22;8788;49.930;8.660;2023-04-16T06:01:27;10.60;99.90
17341;DHT22;8788;49.930;8.660;2023-04-16T06:03:54;10.60;99.90
17341;DHT22;8788;49.930;8.660;2023-04-16T06:06:21;10.60;99.90
17341;DHT22;8788;49.930;8.660;2023-04-16T06:08:48;10.60;99.90
17341;DHT22;8788;49.930;8.660;2023-04-16T06:11:17;10.60;99.90
17341;DHT22;8788;49.930;8.660;2023-04-16T06:13:44;10.60;99.90
17341;DHT22;8788;49.930;8.660;2023-04-16T06:16:11;10.60;99.90
17341;DHT22;8788;49.930;8.660;2023-04-16T06:18:38;10.60;99.90
17341;DHT22;8788;49.930;8.660;2023-04-16T06:21:05;10.60;99.90
17341;DHT22;8788;49.930;8.660;2023-04-16T06:23:32;10.60;99.90
17341;DHT22;8788;49.930;8.660;2023-04-16T06:25:59;10.70;99.90
17341;DHT22;8788;49.930;8.660;2023-04-16T06:28:28;10.70;99.90
17341;DHT22;8788;49.930;8.660;2023-04-16T06:30:55;10.70;99.90
17341;DHT22;8788;49.930;8.660;2023-04-16T06:33:22;10.70;99.90
17341;DHT22;8788;49.930;8.660;2023-04-16T06:35:49;10.70;99.90
17341;DHT22;8788;49.930;8.660;2023-04-16T06:38:17;10.70;99.90
17341;DHT22;8788;49.930;8.660;2023-04-16T06:40:44;10.80;99.90
17341;DHT22;8788;49.930;8.660;2023-04-16T06:43:11;10.80;99.90
17341;DHT22;8788;49.930;8.660;2023-04-16T06:45:41;10.80;99.90
17341;DHT22;8788;49.930;8.660;2023-04-16T06:48:08;10.80;99.90
17341;DHT22;8788;49.930;8.660;2023-04-16T06:50:35;10.80;99.90
17341;DHT22;8788;49.930;8.660;2023-04-16T06:53:03;10.80;99.90
17341;DHT22;8788;49.930;8.660;2023-04-16T06:55:31;10.80;99.90
17341;DHT22;8788;49.930;8.660;2023-04-16T06:57:58;10.90;99.90
17341;DHT22;8788;49.930;8.660;2023-04-16T07:00:26;10.90;99.90
17341;DHT22;8788;49.930;8.660;2023-04-16T07:02:54;10.90;99.90
17341;DHT22;8788;49.930;8.660;2023-04-16T07:05:21;10.90;99.90
17341;DHT22;8788;49.930;8.660;2023-04-16T07:07:48;10.90;99.90
17341;DHT22;8788;49.930;8.660;2023-04-16T07:10:15;10.90;99.90
17341;DHT22;8788;49.930;8.660;2023-04-16T07:12:43;10.90;99.90
17341;DHT22;8788;49.930;8.660;2023-04-16T07:15:10;10.90;99.90
17341;DHT22;8788;49.930;8.660;2023-04-16T07:17:37;10.80;99.90
17341;DHT22;8788;49.930;8.660;2023-04-16T07:20:07;10.80;99.90
17341;DHT22;8788;49.930;8.660;2023-04-16T07:22:34;10.70;99.90
17341;DHT22;8788;49.930;8.660;2023-04-16T07:25:02;10.70;99.90
17341;DHT22;8788;49.930;8.660;2023-04-16T07:27:29;10.70;99.90
17341;DHT22;8788;49.930;8.660;2023-04-16T07:29:56;10.60;99.90
17341;DHT22;8788;49.930;8.660;2023-04-16T07:32:24;10.60;99.90
17341;DHT22;8788;49.930;8.660;2023-04-16T07:34:52;10.50;99.90
17341;DHT22;8788;49.930;8.660;2023-04-16T07:37:20;10.50;99.90
17341;DHT22;8788;49.930;8.660;2023-04-16T07:39:48;10.50;99.90
17341;DHT22;8788;49.930;8.660;2023-04-16T07:42:16;10.50;99.90
17341;DHT22;8788;49.930;8.660;2023-04-16T07:44:43;10.60;99.90
17341;DHT22;8788;49.930;8.660;2023-04-16T07:47:10;10.60;99.90
17341;DHT22;8788;49.930;8.660;2023-04-16T07:49:38;10.60;99.90
17341;DHT22;8788;49.930;8.660;2023-04-16T07:52:05;10.60;99.90
17341;DHT22;8788;49.930;8.660;2023-04-16T07:54:33;10.50;99.90
17341;DHT22;8788;49.930;8.660;2023-04-16T07:57:01;10.50;99.90
17341;DHT22;8788;49.930;8.660;2023-04-16T07:59:28;10.50;99.90
17341;DHT22;8788;49.930;8.660;2023-04-16T08:01:56;10.50;99.90
17341;DHT22;8788;49.930;8.660;2023-04-16T08:04:23;10.40;99.90
17341;DHT22;8788;49.930;8.660;2023-04-16T08:06:50;10.40;99.90
17341;DHT22;8788;49.930;8.660;2023-04-16T08:09:18;10.40;99.90
17341;DHT22;8788;49.930;8.660;2023-04-16T08:11:47;10.50;99.90
17341;DHT22;8788;49.930;8.660;2023-04-16T08:14:14;10.60;99.90
17341;DHT22;8788;49.930;8.660;2023-04-16T08:16:42;10.50;99.90
17341;DHT22;8788;49.930;8.660;2023-04-16T08:19:09;10.50;99.90
17341;DHT22;8788;49.930;8.660;2023-04-16T08:21:36;10.60;99.90
17341;DHT22;8788;49.930;8.660;2023-04-16T08:24:03;10.50;99.90
17341;DHT22;8788;49.930;8.660;2023-04-16T08:26:30;10.50;99.90
17341;DHT22;8788;49.930;8.660;2023-04-16T08:28:59;10.50;99.90
17341;DHT22;8788;49.930;8.660;2023-04-16T08:31:26;10.50;99.90
17341;DHT22;8788;49.930;8.660;2023-04-16T08:33:53;10.50;99.90
17341;DHT22;8788;49.930;8.660;2023-04-16T08:36:20;10.50;99.90
17341;DHT22;8788;49.930;8.660;2023-04-16T08:38:47;10.50;99.90
17341;DHT22;8788;49.930;8.660;2023-04-16T08:41:15;10.50;99.90
17341;DHT22;8788;49.930;8.660;2023-04-16T08:43:44;10.50;99.90
17341;DHT22;8788;49.930;8.660;2023-04-16T08:46:16;10.50;99.90
17341;DHT22;8788;49.930;8.660;2023-04-16T08:48:46;10.60;99.90
17341;DHT22;8788;49.930;8.660;2023-04-16T08:51:15;10.60;99.90
17341;DHT22;8788;49.930;8.660;2023-04-16T08:53:48;10.60;99.90
17341;DHT22;8788;49.930;8.660;2023-04-16T08:56:19;10.60;99.90
17341;DHT22;8788;49.930;8.660;2023-04-16T08:58:49;10.70;99.90
17341;DHT22;8788;49.930;8.660;2023-04-16T09:01:18;10.70;99.90
17341;DHT22;8788;49.930;8.660;2023-04-16T09:03:46;10.70;99.90
17341;DHT22;8788;49.930;8.660;2023-04-16T09:06:14;10.70;99.90
17341;DHT22;8788;49.930;8.660;2023-04-16T09:08:43;10.70;99.90
17341;DHT22;8788;49.930;8.660;2023-04-16T09:11:12;10.80;99.90
17341;DHT22;8788;49.930;8.660;2023-04-16T09:13:39;10.80;99.90
17341;DHT22;8788;49.930;8.660;2023-04-16T09:16:06;10.70;99.90
17341;DHT22;8788;49.930;8.660;2023-04-16T09:18:35;10.80;99.90
17341;DHT22;8788;49.930;8.660;2023-04-16T09:21:03;10.90;99.90
17341;DHT22;8788;49.930;8.660;2023-04-16T09:23:30;10.90;99.90
17341;DHT22;8788;49.930;8.660;2023-04-16T09:25:58;11.00;99.90
17341;DHT22;8788;49.930;8.660;2023-04-16T09:28:38;11.00;99.90
17341;DHT22;8788;49.930;8.660;2023-04-16T09:31:09;11.00;99.90
17341;DHT22;8788;49.930;8.660;2023-04-16T09:33:38;11.00;99.90
17341;DHT22;8788;49.930;8.660;2023-04-16T09:36:05;11.00;99.90
17341;DHT22;8788;49.930;8.660;2023-04-16T09:38:48;11.00;99.90
17341;DHT22;8788;49.930;8.660;2023-04-16T09:41:16;11.10;99.90
17341;DHT22;8788;49.930;8.660;2023-04-16T09:43:53;11.10;99.90
17341;DHT22;8788;49.930;8.660;2023-04-16T09:46:22;11.10;99.90
17341;DHT22;8788;49.930;8.660;2023-04-16T09:48:50;11.20;99.90
17341;DHT22;8788;49.930;8.660;2023-04-16T09:51:17;11.30;99.90
17341;DHT22;8788;49.930;8.660;2023-04-16T09:53:45;11.30;99.90
17341;DHT22;8788;49.930;8.660;2023-04-16T09:56:12;11.40;99.90
17341;DHT22;8788;49.930;8.660;2023-04-16T09:58:39;11.30;99.90
17341;DHT22;8788;49.930;8.660;2023-04-16T10:01:09;11.30;99.90
17341;DHT22;8788;49.930;8.660;2023-04-16T10:03:38;11.30;99.90
17341;DHT22;8788;49.930;8.660;2023-04-16T10:06:14;11.30;99.90
17341;DHT22;8788;49.930;8.660;2023-04-16T10:08:46;11.30;99.90
17341;DHT22;8788;49.930;8.660;2023-04-16T10:11:14;11.40;99.90
17341;DHT22;8788;49.930;8.660;2023-04-16T10:13:41;11.40;99.90
17341;DHT22;8788;49.930;8.660;2023-04-16T10:16:08;11.50;99.90
17341;DHT22;8788;49.930;8.660;2023-04-16T10:18:37;11.50;99.90
17341;DHT22;8788;49.930;8.660;2023-04-16T10:21:04;11.60;99.90
17341;DHT22;8788;49.930;8.660;2023-04-16T10:23:34;11.70;99.90
17341;DHT22;8788;49.930;8.660;2023-04-16T10:26:01;11.70;99.90
17341;DHT22;8788;49.930;8.660;2023-04-16T10:28:29;11.70;99.90
17341;DHT22;8788;49.930;8.660;2023-04-16T10:30:56;11.70;99.90
17341;DHT22;8788;49.930;8.660;2023-04-16T10:33:26;11.70;99.90
17341;DHT22;8788;49.930;8.660;2023-04-16T10:36:06;11.70;99.90
17341;DHT22;8788;49.930;8.660;2023-04-16T10:38:38;11.70;99.90
17341;DHT22;8788;49.930;8.660;2023-04-16T10:41:06;11.70;99.90
17341;DHT22;8788;49.930;8.660;2023-04-16T10:43:39;11.70;99.90
17341;DHT22;8788;49.930;8.660;2023-04-16T10:46:20;11.70;99.90
17341;DHT22;8788;49.930;8.660;2023-04-16T10:48:49;11.80;99.90
17341;DHT22;8788;49.930;8.660;2023-04-16T10:51:23;11.70;99.90
17341;DHT22;8788;49.930;8.660;2023-04-16T10:53:55;11.80;99.90
17341;DHT22;8788;49.930;8.660;2023-04-16T10:56:22;11.80;99.90
17341;DHT22;8788;49.930;8.660;2023-04-16T10:58:52;11.90;99.90
17341;DHT22;8788;49.930;8.660;2023-04-16T11:01:29;11.90;99.90
17341;DHT22;8788;49.930;8.660;2023-04-16T11:03:58;11.90;99.90
17341;DHT22;8788;49.930;8.660;2023-04-16T11:06:27;12.00;99.90
17341;DHT22;8788;49.930;8.660;2023-04-16T11:08:55;12.00;99.90
17341;DHT22;8788;49.930;8.660;2023-04-16T11:11:22;12.00;99.90
17341;DHT22;8788;49.930;8.660;2023-04-16T11:14:03;12.00;99.90
17341;DHT22;8788;49.930;8.660;2023-04-16T11:16:31;12.00;99.90
17341;DHT22;8788;49.930;8.660;2023-04-16T11:18:59;12.00;99.90
17341;DHT22;8788;49.930;8.660;2023-04-16T11:21:26;12.10;99.90
17341;DHT22;8788;49.930;8.660;2023-04-16T11:23:54;12.10;99.90
17341;DHT22;8788;49.930;8.660;2023-04-16T11:26:25;12.20;99.90
17341;DHT22;8788;49.930;8.660;2023-04-16T11:28:53;12.20;99.90
17341;DHT22;8788;49.930;8.660;2023-04-16T11:31:20;12.20;99.90
17341;DHT22;8788;49.930;8.660;2023-04-16T11:33:48;12.20;99.90
17341;DHT22;8788;49.930;8.660;2023-04-16T11:36:15;12.30;99.90
17341;DHT22;8788;49.930;8.660;2023-04-16T11:38:42;12.40;99.90
17341;DHT22;8788;49.930;8.660;2023-04-16T11:41:20;12.40;99.90
17341;DHT22;8788;49.930;8.660;2023-04-16T11:43:49;12.40;99.90
17341;DHT22;8788;49.930;8.660;2023-04-16T11:46:16;12.40;99.90
17341;DHT22;8788;49.930;8.660;2023-04-16T11:48:47;12.40;99.90
17341;DHT22;8788;49.930;8.660;2023-04-16T11:51:15;12.40;99.90
17341;DHT22;8788;49.930;8.660;2023-04-16T11:53:47;12.40;99.90
17341;DHT22;8788;49.930;8.660;2023-04-16T11:56:23;12.40;99.90
17341;DHT22;8788;49.930;8.660;2023-04-16T11:59:08;12.40;99.90
17341;DHT22;8788;49.930;8.660;2023-04-16T12:01:36;12.40;99.90
17341;DHT22;8788;49.930;8.660;2023-04-16T12:04:04;12.50;99.90
17341;DHT22;8788;49.930;8.660;2023-04-16T12:06:31;12.50;99.90
17341;DHT22;8788;49.930;8.660;2023-04-16T12:08:58;12.60;99.90
17341;DHT22;8788;49.930;8.660;2023-04-16T12:11:40;12.60;99.90
17341;DHT22;8788;49.930;8.660;2023-04-16T12:14:07;12.60;99.90
17341;DHT22;8788;49.930;8.660;2023-04-16T12:16:35;12.70;99.90
17341;DHT22;8788;49.930;8.660;2023-04-16T12:19:03;12.70;99.90
17341;DHT22;8788;49.930;8.660;2023-04-16T12:21:37;12.80;99.90
17341;DHT22;8788;49.930;8.660;2023-04-16T12:24:05;12.80;99.90
17341;DHT22;8788;49.930;8.660;2023-04-16T12:26:38;13.00;99.90
17341;DHT22;8788;49.930;8.660;2023-04-16T12:29:16;13.10;99.90
17341;DHT22;8788;49.930;8.660;2023-04-16T12:31:44;13.10;99.90
17341;DHT22;8788;49.930;8.660;2023-04-16T12:34:11;13.00;99.90
17341;DHT22;8788;49.930;8.660;2023-04-16T12:36:40;13.00;99.90
17341;DHT22;8788;49.930;8.660;2023-04-16T12:39:07;12.90;99.90
17341;DHT22;8788;49.930;8.660;2023-04-16T12:41:36;12.90;99.90
17341;DHT22;8788;49.930;8.660;2023-04-16T12:44:07;12.90;99.90
17341;DHT22;8788;49.930;8.660;2023-04-16T12:46:38;12.90;99.90
17341;DHT22;8788;49.930;8.660;2023-04-16T12:49:06;12.90;99.90
17341;DHT22;8788;49.930;8.660;2023-04-16T12:51:34;12.90;99.90
17341;DHT22;8788;49.930;8.660;2023-04-16T12:54:02;12.80;99.90
17341;DHT22;8788;49.930;8.660;2023-04-16T12:56:30;12.80;99.90
17341;DHT22;8788;49.930;8.660;2023-04-16T12:58:57;12.80;99.90
17341;DHT22;8788;49.930;8.660;2023-04-16T13:01:25;12.80;99.90
17341;DHT22;8788;49.930;8.660;2023-04-16T13:03:52;12.80;99.90
17341;DHT22;8788;49.930;8.660;2023-04-16T13:06:20;12.80;99.90
17341;DHT22;8788;49.930;8.660;2023-04-16T13:08:47;12.80;99.90
17341;DHT22;8788;49.930;8.660;2023-04-16T13:11:14;12.80;99.90
17341;DHT22;8788;49.930;8.660;2023-04-16T13:13:41;12.80;99.90
17341;DHT22;8788;49.930;8.660;2023-04-16T13:16:08;12.90;99.90
17341;DHT22;8788;49.930;8.660;2023-04-16T13:18:37;12.90;99.90
17341;DHT22;8788;49.930;8.660;2023-04-16T13:21:04;12.90;99.90
17341;DHT22;8788;49.930;8.660;2023-04-16T13:23:32;12.90;99.90
17341;DHT22;8788;49.930;8.660;2023-04-16T13:26:00;12.90;99.90
17341;DHT22;8788;49.930;8.660;2023-04-16T13:28:27;13.00;99.90
17341;DHT22;8788;49.930;8.660;2023-04-16T13:30:54;13.00;99.90
17341;DHT22;8788;49.930;8.660;2023-04-16T13:33:21;13.00;99.90
17341;DHT22;8788;49.930;8.660;2023-04-16T13:35:50;13.10;99.90
17341;DHT22;8788;49.930;8.660;2023-04-16T13:38:17;13.20;99.90
17341;DHT22;8788;49.930;8.660;2023-04-16T13:40:44;13.30;99.90
17341;DHT22;8788;49.930;8.660;2023-04-16T13:43:11;13.30;99.90
17341;DHT22;8788;49.930;8.660;2023-04-16T13:45:41;13.40;99.90
17341;DHT22;8788;49.930;8.660;2023-04-16T13:48:08;13.40;99.90
17341;DHT22;8788;49.930;8.660;2023-04-16T13:50:35;13.40;99.90
17341;DHT22;8788;49.930;8.660;2023-04-16T13:53:04;13.50;99.90
17341;DHT22;8788;49.930;8.660;2023-04-16T13:55:32;13.50;99.90
17341;DHT22;8788;49.930;8.660;2023-04-16T13:58:00;13.60;99.90
17341;DHT22;8788;49.930;8.660;2023-04-16T14:00:27;13.80;99.90
17341;DHT22;8788;49.930;8.660;2023-04-16T14:02:54;13.90;99.90
17341;DHT22;8788;49.930;8.660;2023-04-16T14:05:21;13.90;99.90
17341;DHT22;8788;49.930;8.660;2023-04-16T14:07:49;14.00;99.90
17341;DHT22;8788;49.930;8.660;2023-04-16T14:10:18;14.10;99.90
17341;DHT22;8788;49.930;8.660;2023-04-16T14:12:45;14.20;99.90
17341;DHT22;8788;49.930;8.660;2023-04-16T14:15:12;14.20;99.90
17341;DHT22;8788;49.930;8.660;2023-04-16T14:17:41;14.10;99.90
17341;DHT22;8788;49.930;8.660;2023-04-16T14:20:10;14.10;99.90
17341;DHT22;8788;49.930;8.660;2023-04-16T14:22:37;14.00;99.90
17341;DHT22;8788;49.930;8.660;2023-04-16T14:25:05;14.00;99.90
17341;DHT22;8788;49.930;8.660;2023-04-16T14:27:35;14.00;99.90
17341;DHT22;8788;49.930;8.660;2023-04-16T14:30:02;13.90;99.90
17341;DHT22;8788;49.930;8.660;2023-04-16T14:32:29;13.90;99.90
17341;DHT22;8788;49.930;8.660;2023-04-16T14:34:56;14.00;99.90
17341;DHT22;8788;49.930;8.660;2023-04-16T14:37:23;14.10;99.90
17341;DHT22;8788;49.930;8.660;2023-04-16T14:39:51;14.10;99.90
17341;DHT22;8788;49.930;8.660;2023-04-16T14:42:18;14.10;99.90
17341;DHT22;8788;49.930;8.660;2023-04-16T14:44:48;14.10;99.90
17341;DHT22;8788;49.930;8.660;2023-04-16T14:47:16;14.10;99.90
17341;DHT22;8788;49.930;8.660;2023-04-16T14:49:43;14.00;99.90
17341;DHT22;8788;49.930;8.660;2023-04-16T14:52:11;14.00;99.90
17341;DHT22;8788;49.930;8.660;2023-04-16T14:54:38;13.90;99.90
17341;DHT22;8788;49.930;8.660;2023-04-16T14:57:05;13.90;99.90
17341;DHT22;8788;49.930;8.660;2023-04-16T14:59:32;13.80;99.90
17341;DHT22;8788;49.930;8.660;2023-04-16T15:02:01;13.80;99.90
17341;DHT22;8788;49.930;8.660;2023-04-16T15:04:28;13.70;99.90
17341;DHT22;8788;49.930;8.660;2023-04-16T15:06:55;13.70;99.90
17341;DHT22;8788;49.930;8.660;2023-04-16T15:09:24;13.70;99.90
17341;DHT22;8788;49.930;8.660;2023-04-16T15:11:52;13.70;99.90
17341;DHT22;8788;49.930;8.660;2023-04-16T15:14:19;13.60;99.90
17341;DHT22;8788;49.930;8.660;2023-04-16T15:16:47;13.60;99.90
17341;DHT22;8788;49.930;8.660;2023-04-16T15:19:15;13.60;99.90
17341;DHT22;8788;49.930;8.660;2023-04-16T15:21:42;13.50;99.90
17341;DHT22;8788;49.930;8.660;2023-04-16T15:24:09;13.60;99.90
17341;DHT22;8788;49.930;8.660;2023-04-16T15:26:36;13.50;99.90
17341;DHT22;8788;49.930;8.660;2023-04-16T15:29:03;13.50;99.90
17341;DHT22;8788;49.930;8.660;2023-04-16T15:31:30;13.60;99.90
17341;DHT22;8788;49.930;8.660;2023-04-16T15:33:58;13.70;99.90
17341;DHT22;8788;49.930;8.660;2023-04-16T15:36:26;13.70;99.90
17341;DHT22;8788;49.930;8.660;2023-04-16T15:38:54;13.70;99.90
17341;DHT22;8788;49.930;8.660;2023-04-16T15:41:21;13.70;99.90
17341;DHT22;8788;49.930;8.660;2023-04-16T15:43:48;13.70;99.90
17341;DHT22;8788;49.930;8.660;2023-04-16T15:46:15;13.70;99.90
17341;DHT22;8788;49.930;8.660;2023-04-16T15:48:42;13.70;99.90
17341;DHT22;8788;49.930;8.660;2023-04-16T15:51:09;13.70;99.90